createdAt,value
2018-05-26T00:01:23.479Z,101411.67
2018-05-26T00:03:51.132Z,101413.82
2018-05-26T00:06:18.721Z,101412.44
2018-05-26T00:08:46.365Z,101411.55
2018-05-26T00:11:13.974Z,101418.52
2018-05-26T00:13:41.625Z,101418.16
2018-05-26T00:16:09.235Z,101415.48
2018-05-26T00:18:36.889Z,101418.62
2018-05-26T00:21:04.467Z,101415.17
2018-05-26T00:23:32.089Z,101418.67
2018-05-26T00:25:59.688Z,101420.43
2018-05-26T00:28:27.373Z,101416.47
2018-05-26T00:30:54.956Z,101415.14
2018-05-26T00:33:22.584Z,101419.13
2018-05-26T00:43:41.799Z,101417.84
2018-05-26T00:46:09.386Z,101413.44
2018-05-26T00:48:37.048Z,101419.19
2018-05-26T00:51:04.635Z,101419.58
2018-05-26T00:53:32.264Z,101420.81
2018-05-26T00:55:59.930Z,101417.23
2018-05-26T00:58:27.540Z,101424.67
2018-05-26T01:00:55.129Z,101429.16
2018-05-26T01:03:22.812Z,101421.68
2018-05-26T01:05:50.514Z,101428.15
2018-05-26T01:08:18.106Z,101427.98
2018-05-26T01:10:45.730Z,101429.65
2018-05-26T01:13:13.332Z,101435.47
2018-05-26T01:15:41.013Z,101438.39
2018-05-26T01:18:08.790Z,101434.85
2018-05-26T01:20:36.421Z,101439.34
2018-05-26T01:23:04.005Z,101436.83
2018-05-26T01:25:31.640Z,101438.17
2018-05-26T01:27:59.236Z,101430.29
2018-05-26T01:30:26.865Z,101426.81
2018-05-26T01:32:54.494Z,101426.80
2018-05-26T01:35:22.138Z,101437.61
2018-05-26T01:37:49.752Z,101431.42
2018-05-26T01:40:17.418Z,101432.63
2018-05-26T01:42:45.054Z,101432.50
2018-05-26T01:45:12.725Z,101431.95
2018-05-26T01:47:40.385Z,101429.79
2018-05-26T01:50:07.989Z,101425.34
2018-05-26T01:52:35.625Z,101422.87
2018-05-26T01:55:03.240Z,101424.73
2018-05-26T01:57:30.915Z,101425.09
2018-05-26T01:59:58.512Z,101414.55
2018-05-26T02:02:26.149Z,101415.80
2018-05-26T02:04:53.803Z,101422.84
2018-05-26T02:07:21.439Z,101418.03
2018-05-26T02:09:49.039Z,101417.70
2018-05-26T02:12:16.640Z,101419.33
2018-05-26T02:14:44.291Z,101416.62
2018-05-26T02:17:11.888Z,101415.92
2018-05-26T02:19:39.546Z,101417.73
2018-05-26T02:22:07.235Z,101415.38
2018-05-26T02:24:34.877Z,101418.50
2018-05-26T02:27:02.638Z,101410.55
2018-05-26T02:29:30.494Z,101413.81
2018-05-26T02:31:58.094Z,101410.25
2018-05-26T02:34:25.764Z,101415.41
2018-05-26T02:36:53.381Z,101412.03
2018-05-26T02:39:21.140Z,101414.22
2018-05-26T02:41:48.737Z,101417.00
2018-05-26T02:44:16.348Z,101421.48
2018-05-26T02:46:43.986Z,101424.19
2018-05-26T02:49:11.623Z,101419.80
2018-05-26T02:51:39.265Z,101424.05
2018-05-26T02:54:07.017Z,101425.84
2018-05-26T02:56:34.645Z,101426.34
2018-05-26T02:59:02.251Z,101429.69
2018-05-26T03:01:29.886Z,101422.53
2018-05-26T03:03:57.021Z,101421.64
2018-05-26T03:06:30.263Z,101421.92
2018-05-26T03:09:03.401Z,101416.56
2018-05-26T03:11:36.561Z,101417.84
2018-05-26T03:14:09.711Z,101418.28
2018-05-26T03:16:42.309Z,101413.59
2018-05-26T03:19:09.912Z,101411.51
2018-05-26T03:21:37.792Z,101417.72
2018-05-26T03:24:05.480Z,101418.42
2018-05-26T03:26:33.132Z,101417.75
2018-05-26T03:29:00.729Z,101414.88
2018-05-26T03:31:28.493Z,101418.72
2018-05-26T03:33:56.084Z,101425.98
2018-05-26T03:36:23.725Z,101424.33
2018-05-26T03:38:51.372Z,101424.36
2018-05-26T03:41:18.964Z,101423.08
2018-05-26T03:43:46.791Z,101422.94
2018-05-26T03:46:14.377Z,101430.29
2018-05-26T03:48:42.012Z,101434.70
2018-05-26T03:51:09.601Z,101440.04
2018-05-26T03:53:37.234Z,101441.69
2018-05-26T03:56:16.656Z,101445.05
2018-05-26T03:58:56.201Z,101445.09
2018-05-26T04:01:23.826Z,101436.25
2018-05-26T04:03:51.484Z,101439.56
2018-05-26T04:06:19.132Z,101437.53
2018-05-26T04:08:46.752Z,101436.83
2018-05-26T04:11:14.551Z,101440.08
2018-05-26T04:13:42.177Z,101444.06
2018-05-26T04:16:09.761Z,101442.27
2018-05-26T04:18:37.391Z,101441.42
2018-05-26T04:21:04.994Z,101442.44
2018-05-26T04:23:32.629Z,101446.28
2018-05-26T04:26:00.222Z,101445.98
2018-05-26T04:28:27.944Z,101453.14
2018-05-26T04:30:55.548Z,101450.53
2018-05-26T04:33:23.240Z,101455.79
2018-05-26T04:35:50.896Z,101458.62
2018-05-26T04:38:18.482Z,101459.51
2018-05-26T04:40:46.112Z,101459.98
2018-05-26T04:43:13.725Z,101470.37
2018-05-26T04:45:41.369Z,101466.52
2018-05-26T04:48:09.787Z,101466.45
2018-05-26T04:50:37.444Z,101468.31
2018-05-26T04:53:05.037Z,101472.30
2018-05-26T04:55:32.665Z,101474.70
2018-05-26T04:58:00.260Z,101478.44
2018-05-26T05:00:27.885Z,101483.83
2018-05-26T05:02:55.555Z,101482.95
2018-05-26T05:05:23.217Z,101486.19
2018-05-26T05:07:50.816Z,101484.11
2018-05-26T05:10:18.520Z,101492.16
2018-05-26T05:12:46.165Z,101489.20
2018-05-26T05:15:13.937Z,101492.44
2018-05-26T05:17:41.657Z,101494.30
2018-05-26T05:20:09.269Z,101494.45
2018-05-26T05:22:36.892Z,101494.58
2018-05-26T05:25:04.524Z,101499.92
2018-05-26T05:27:32.176Z,101504.82
2018-05-26T05:29:59.767Z,101508.34
2018-05-26T05:32:27.467Z,101501.77
2018-05-26T05:34:55.095Z,101507.99
2018-05-26T05:37:22.722Z,101510.16
2018-05-26T05:39:50.319Z,101510.14
2018-05-26T05:50:35.882Z,101511.20
2018-05-26T05:53:03.468Z,101523.14
2018-05-26T05:55:31.123Z,101522.38
2018-05-26T05:57:58.744Z,101516.64
2018-05-26T06:00:26.360Z,101517.09
2018-05-26T06:02:53.997Z,101515.78
2018-05-26T06:05:21.617Z,101521.97
2018-05-26T06:07:49.273Z,101522.50
2018-05-26T06:10:16.959Z,101522.98
2018-05-26T06:12:44.593Z,101527.41
2018-05-26T06:15:12.229Z,101534.48
2018-05-26T06:17:39.840Z,101535.88
2018-05-26T06:20:07.464Z,101535.92
2018-05-26T06:22:35.140Z,101536.86
2018-05-26T06:25:02.760Z,101544.77
2018-05-26T06:27:30.355Z,101546.06
2018-05-26T06:29:58.013Z,101542.17
2018-05-26T06:32:25.601Z,101539.15
2018-05-26T06:34:53.248Z,101544.03
2018-05-26T06:37:20.893Z,101547.58
2018-05-26T06:39:48.549Z,101546.71
2018-05-26T06:42:16.156Z,101546.20
2018-05-26T06:44:43.881Z,101542.16
2018-05-26T06:47:13.196Z,101543.13
2018-05-26T06:49:40.834Z,101535.23
2018-05-26T06:52:08.449Z,101533.92
2018-05-26T06:54:36.065Z,101533.10
2018-05-26T06:57:03.660Z,101532.70
2018-05-26T06:59:31.332Z,101534.55
2018-05-26T07:01:58.933Z,101528.39
2018-05-26T07:04:26.668Z,101531.06
2018-05-26T07:06:54.273Z,101529.72
2018-05-26T07:09:21.978Z,101526.62
2018-05-26T07:11:49.575Z,101529.33
2018-05-26T07:14:17.176Z,101523.17
2018-05-26T07:16:44.832Z,101521.50
2018-05-26T07:19:12.482Z,101521.05
2018-05-26T07:21:40.153Z,101523.72
2018-05-26T07:24:07.757Z,101526.38
2018-05-26T07:26:35.473Z,101522.86
2018-05-26T07:29:03.073Z,101527.72
2018-05-26T07:31:30.710Z,101518.91
2018-05-26T07:33:58.313Z,101522.89
2018-05-26T07:36:25.960Z,101514.95
2018-05-26T07:38:53.555Z,101516.71
2018-05-26T07:41:21.212Z,101518.95
2018-05-26T07:43:48.917Z,101521.16
2018-05-26T07:46:16.514Z,101520.28
2018-05-26T07:48:44.149Z,101526.43
2018-05-26T07:51:11.808Z,101522.45
2018-05-26T07:53:39.443Z,101530.39
2018-05-26T07:56:07.276Z,101520.20
2018-05-26T07:58:35.023Z,101521.97
2018-05-26T08:01:02.528Z,101527.66
2018-05-26T08:03:30.237Z,101528.55
2018-05-26T08:05:57.840Z,101519.70
2018-05-26T08:08:25.465Z,101525.02
2018-05-26T08:10:53.168Z,101528.06
2018-05-26T08:13:20.781Z,101528.48
2018-05-26T08:15:48.393Z,101528.43
2018-05-26T08:18:16.042Z,101535.44
2018-05-26T08:20:43.665Z,101533.66
2018-05-26T08:23:11.314Z,101541.55
2018-05-26T08:25:38.924Z,101535.06
2018-05-26T08:28:06.599Z,101539.84
2018-05-26T08:30:34.278Z,101539.88
2018-05-26T08:33:01.882Z,101545.06
2018-05-26T08:35:29.533Z,101539.70
2018-05-26T08:37:57.122Z,101540.52
2018-05-26T08:40:24.881Z,101537.02
2018-05-26T08:42:52.481Z,101525.92
2018-05-26T08:45:20.128Z,101534.66
2018-05-26T08:47:47.752Z,101527.00
2018-05-26T08:50:15.384Z,101536.27
2018-05-26T08:52:42.981Z,101528.81
2018-05-26T08:55:10.637Z,101537.23
2018-05-26T08:57:38.258Z,101534.17
2018-05-26T09:00:05.856Z,101534.80
2018-05-26T09:02:33.488Z,101527.98
2018-05-26T09:05:01.084Z,101531.23
2018-05-26T09:07:28.766Z,101530.18
2018-05-26T09:09:56.373Z,101528.53
2018-05-26T09:12:24.285Z,101530.01
2018-05-26T09:14:51.970Z,101527.97
2018-05-26T09:17:19.625Z,101531.70
2018-05-26T09:19:47.233Z,101527.75
2018-05-26T09:22:14.895Z,101519.16
2018-05-26T09:24:42.558Z,101523.49
2018-05-26T09:27:10.184Z,101518.42
2018-05-26T09:29:37.834Z,101519.87
2018-05-26T09:32:05.476Z,101519.24
2018-05-26T09:34:33.082Z,101519.59
2018-05-26T09:37:00.777Z,101512.69
2018-05-26T09:39:28.418Z,101511.02
2018-05-26T09:41:56.036Z,101515.95
2018-05-26T09:44:23.664Z,101520.12
2018-05-26T09:46:51.250Z,101521.36
2018-05-26T09:49:18.886Z,101518.72
2018-05-26T09:51:46.489Z,101517.31
2018-05-26T09:54:14.140Z,101517.55
2018-05-26T09:56:41.774Z,101514.19
2018-05-26T09:59:09.427Z,101515.27
2018-05-26T10:01:37.024Z,101513.91
2018-05-26T10:04:04.613Z,101514.02
2018-05-26T10:06:32.267Z,101520.34
2018-05-26T10:08:59.879Z,101513.94
2018-05-26T10:11:27.530Z,101511.03
2018-05-26T10:13:55.145Z,101512.22
2018-05-26T10:16:22.781Z,101512.56
2018-05-26T10:18:50.380Z,101506.03
2018-05-26T10:21:18.090Z,101503.98
2018-05-26T10:23:45.712Z,101510.91
2018-05-26T10:26:13.342Z,101509.70
2018-05-26T10:28:40.928Z,101514.42
2018-05-26T10:31:08.649Z,101503.27
2018-05-26T10:33:36.244Z,101515.03
2018-05-26T10:36:03.942Z,101506.28
2018-05-26T10:38:31.572Z,101510.65
2018-05-26T10:40:59.165Z,101499.07
2018-05-26T10:43:26.905Z,101511.45
2018-05-26T10:46:06.008Z,101501.40
2018-05-26T10:48:33.650Z,101493.66
2018-05-26T10:51:01.293Z,101491.91
2018-05-26T10:53:34.985Z,101494.00
2018-05-26T10:56:02.598Z,101482.14
2018-05-26T10:58:30.313Z,101475.41
2018-05-26T11:00:57.921Z,101485.44
2018-05-26T11:03:25.572Z,101489.70
2018-05-26T11:05:53.186Z,101489.11
2018-05-26T11:08:20.839Z,101487.23
2018-05-26T11:10:48.442Z,101489.64
2018-05-26T11:13:16.093Z,101491.25
2018-05-26T11:15:43.713Z,101485.23
2018-05-26T11:18:11.333Z,101488.34
2018-05-26T11:20:38.966Z,101487.91
2018-05-26T11:23:06.680Z,101491.23
2018-05-26T11:25:34.363Z,101491.29
2018-05-26T11:28:01.958Z,101490.64
2018-05-26T11:30:29.628Z,101488.98
2018-05-26T11:32:57.232Z,101479.76
2018-05-26T11:35:25.016Z,101489.48
2018-05-26T11:37:52.647Z,101492.02
2018-05-26T11:40:20.229Z,101489.78
2018-05-26T11:42:47.882Z,101486.27
2018-05-26T11:45:15.449Z,101501.40
2018-05-26T11:47:43.082Z,101489.86
2018-05-26T11:50:10.680Z,101488.91
2018-05-26T11:52:38.321Z,101490.87
2018-05-26T11:55:05.909Z,101483.02
2018-05-26T11:57:33.568Z,101475.22
2018-05-26T12:00:01.188Z,101480.84
2018-05-26T12:02:28.932Z,101463.02
2018-05-26T12:04:56.523Z,101474.83
2018-05-26T12:07:24.132Z,101474.70
2018-05-26T12:09:51.773Z,101482.52
2018-05-26T12:12:19.392Z,101480.80
2018-05-26T12:14:47.120Z,101477.76
2018-05-26T12:17:14.725Z,101475.59
2018-05-26T12:19:42.350Z,101480.33
2018-05-26T12:22:09.961Z,101479.76
2018-05-26T12:24:37.621Z,101483.03
2018-05-26T12:27:05.225Z,101477.95
2018-05-26T12:29:32.868Z,101479.61
2018-05-26T12:32:00.482Z,101476.20
2018-05-26T12:34:28.154Z,101477.73
2018-05-26T12:36:55.739Z,101480.11
2018-05-26T12:39:23.384Z,101477.92
2018-05-26T12:41:51.048Z,101478.19
2018-05-26T12:44:18.710Z,101479.38
2018-05-26T12:46:46.315Z,101474.12
2018-05-26T12:49:13.916Z,101480.73
2018-05-26T12:51:41.546Z,101482.01
2018-05-26T12:54:09.179Z,101477.39
2018-05-26T12:56:37.836Z,101479.73
2018-05-26T12:59:05.424Z,101472.38
2018-05-26T13:01:33.143Z,101476.67
2018-05-26T13:04:00.756Z,101473.56
2018-05-26T13:06:28.416Z,101474.84
2018-05-26T13:08:56.028Z,101468.94
2018-05-26T13:11:23.655Z,101467.23
2018-05-26T13:13:51.298Z,101468.14
2018-05-26T13:16:18.913Z,101470.91
2018-05-26T13:18:46.520Z,101458.56
2018-05-26T13:21:14.172Z,101455.45
2018-05-26T13:23:41.878Z,101454.70
2018-05-26T13:26:09.512Z,101449.41
2018-05-26T13:28:37.194Z,101453.19
2018-05-26T13:31:04.878Z,101447.73
2018-05-26T13:33:32.526Z,101446.77
2018-05-26T13:36:00.124Z,101442.51
2018-05-26T13:38:27.785Z,101433.10
2018-05-26T13:40:55.473Z,101436.67
2018-05-26T13:43:23.113Z,101440.68
2018-05-26T13:45:50.739Z,101440.63
2018-05-26T13:48:18.381Z,101439.74
2018-05-26T13:50:46.128Z,101443.44
2018-05-26T13:53:13.665Z,101450.20
2018-05-26T13:55:41.325Z,101442.68
2018-05-26T13:58:08.892Z,101437.53
2018-05-26T14:00:37.374Z,101441.17
2018-05-26T14:03:05.001Z,101450.13
2018-05-26T14:05:32.589Z,101441.24
2018-05-26T14:08:00.224Z,101430.05
2018-05-26T14:10:27.836Z,101427.96
2018-05-26T14:12:55.480Z,101423.83
2018-05-26T14:15:23.093Z,101418.84
2018-05-26T14:17:50.710Z,101421.23
2018-05-26T14:20:18.362Z,101419.44
2018-05-26T14:22:46.124Z,101417.63
2018-05-26T14:25:13.889Z,101414.70
2018-05-26T14:27:41.497Z,101420.86
2018-05-26T14:30:09.266Z,101416.59
2018-05-26T14:32:36.852Z,101413.63
2018-05-26T14:35:04.473Z,101409.95
2018-05-26T14:37:32.105Z,101408.39
2018-05-26T14:39:59.741Z,101404.25
2018-05-26T14:42:27.356Z,101397.80
2018-05-26T14:44:55.188Z,101404.08
2018-05-26T14:47:22.798Z,101392.94
2018-05-26T14:49:50.552Z,101408.16
2018-05-26T14:52:18.126Z,101403.89
2018-05-26T14:54:45.716Z,101392.75
2018-05-26T14:57:13.488Z,101399.41
2018-05-26T14:59:41.088Z,101395.22
2018-05-26T15:02:08.748Z,101399.94
2018-05-26T15:04:36.374Z,101402.06
2018-05-26T15:07:04.010Z,101398.09
2018-05-26T15:09:32.412Z,101397.65
2018-05-26T15:12:00.090Z,101399.34
2018-05-26T15:14:27.704Z,101406.36
2018-05-26T15:16:55.510Z,101402.50
2018-05-26T15:19:23.090Z,101398.55
2018-05-26T15:21:50.736Z,101391.66
2018-05-26T15:24:18.392Z,101393.01
2018-05-26T15:26:46.037Z,101399.28
2018-05-26T15:29:13.638Z,101400.41
2018-05-26T15:31:41.264Z,101397.95
2018-05-26T15:34:08.862Z,101401.02
2018-05-26T15:36:36.494Z,101393.55
2018-05-26T15:39:04.282Z,101390.17
2018-05-26T15:41:31.961Z,101384.19
2018-05-26T15:43:59.562Z,101386.67
2018-05-26T15:46:27.162Z,101386.95
2018-05-26T15:48:54.890Z,101383.48
2018-05-26T15:51:22.505Z,101393.99
2018-05-26T15:53:50.325Z,101387.13
2018-05-26T15:56:17.931Z,101390.14
2018-05-26T15:58:45.653Z,101386.87
2018-05-26T16:01:13.279Z,101387.94
2018-05-26T16:03:40.911Z,101390.47
2018-05-26T16:06:08.524Z,101393.77
2018-05-26T16:08:36.168Z,101392.41
2018-05-26T16:11:03.750Z,101387.37
2018-05-26T16:13:31.497Z,101389.53
2018-05-26T16:15:59.093Z,101381.88
2018-05-26T16:18:26.729Z,101381.16
2018-05-26T16:20:54.334Z,101379.58
2018-05-26T16:23:21.985Z,101379.73
2018-05-26T16:25:49.589Z,101380.11
2018-05-26T16:28:17.225Z,101377.50
2018-05-26T16:30:44.829Z,101381.55
2018-05-26T16:33:12.492Z,101377.13
2018-05-26T16:35:40.117Z,101378.86
2018-05-26T16:38:07.709Z,101381.05
2018-05-26T16:40:35.430Z,101378.38
2018-05-26T16:43:03.035Z,101384.66
2018-05-26T16:45:30.836Z,101386.66
2018-05-26T16:47:58.777Z,101385.66
2018-05-26T16:50:26.404Z,101388.26
2018-05-26T16:52:54.041Z,101392.24
2018-05-26T16:55:21.753Z,101390.30
2018-05-26T16:57:49.365Z,101390.42
2018-05-26T17:00:17.005Z,101387.57
2018-05-26T17:02:44.597Z,101385.23
2018-05-26T17:05:12.259Z,101386.14
2018-05-26T17:07:39.865Z,101380.54
2018-05-26T17:10:07.513Z,101381.78
2018-05-26T17:12:35.118Z,101391.47
2018-05-26T17:15:02.744Z,101393.84
2018-05-26T17:17:30.356Z,101384.73
2018-05-26T17:19:57.996Z,101389.16
2018-05-26T17:22:25.619Z,101386.73
2018-05-26T17:24:53.205Z,101386.19
2018-05-26T17:27:20.869Z,101395.05
2018-05-26T17:29:48.515Z,101387.19
2018-05-26T17:32:16.155Z,101387.69
2018-05-26T17:34:43.826Z,101390.38
2018-05-26T17:37:11.509Z,101389.73
2018-05-26T17:39:39.097Z,101393.92
2018-05-26T17:42:06.852Z,101394.34
2018-05-26T17:44:34.651Z,101394.62
2018-05-26T17:47:02.289Z,101396.58
2018-05-26T17:49:29.910Z,101398.27
2018-05-26T17:51:57.534Z,101396.37
2018-05-26T17:54:25.158Z,101397.97
2018-05-26T17:56:52.798Z,101390.78
2018-05-26T17:59:20.413Z,101392.67
2018-05-26T18:01:48.076Z,101390.19
2018-05-26T18:04:15.663Z,101394.68
2018-05-26T18:06:43.266Z,101393.95
2018-05-26T18:09:10.956Z,101386.64
2018-05-26T18:11:38.562Z,101393.42
2018-05-26T18:14:06.209Z,101391.65
2018-05-26T18:16:33.804Z,101395.05
2018-05-26T18:19:01.466Z,101391.92
2018-05-26T18:21:29.087Z,101399.41
2018-05-26T18:23:56.704Z,101392.86
2018-05-26T18:26:24.369Z,101394.16
2018-05-26T18:28:52.097Z,101392.64
2018-05-26T18:31:19.725Z,101392.42
2018-05-26T18:33:47.440Z,101398.76
2018-05-26T18:36:15.030Z,101393.00
2018-05-26T18:38:42.843Z,101391.51
2018-05-26T18:41:10.453Z,101394.81
2018-05-26T18:43:38.192Z,101396.09
2018-05-26T18:46:05.780Z,101395.26
2018-05-26T18:48:33.420Z,101393.98
2018-05-26T18:51:01.052Z,101400.93
2018-05-26T18:53:28.764Z,101405.75
2018-05-26T18:55:56.357Z,101410.31
2018-05-26T18:58:23.969Z,101405.56
2018-05-26T19:00:51.625Z,101409.06
2018-05-26T19:03:19.241Z,101402.67
2018-05-26T19:05:46.885Z,101411.25
2018-05-26T19:08:14.511Z,101407.30
2018-05-26T19:10:42.140Z,101410.83
2018-05-26T19:13:09.745Z,101417.17
2018-05-26T19:15:37.399Z,101412.14
2018-05-26T19:18:05.060Z,101406.97
2018-05-26T19:20:32.749Z,101408.58
2018-05-26T19:23:00.469Z,101405.80
2018-05-26T19:25:28.133Z,101409.86
2018-05-26T19:27:55.808Z,101418.03
2018-05-26T19:30:23.537Z,101423.73
2018-05-26T19:32:51.152Z,101422.06
2018-05-26T19:35:18.894Z,101419.95
2018-05-26T19:37:46.507Z,101422.37
2018-05-26T19:40:14.142Z,101421.72
2018-05-26T19:42:41.800Z,101429.28
2018-05-26T19:45:09.400Z,101429.81
2018-05-26T19:47:37.203Z,101434.85
2018-05-26T19:50:04.871Z,101440.23
2018-05-26T19:52:32.460Z,101439.31
2018-05-26T19:55:00.060Z,101450.16
2018-05-26T19:57:27.689Z,101446.03
2018-05-26T19:59:55.289Z,101446.27
2018-05-26T20:02:22.952Z,101444.22
2018-05-26T20:04:50.553Z,101444.83
2018-05-26T20:07:18.189Z,101455.64
2018-05-26T20:09:45.794Z,101458.32
2018-05-26T20:12:13.408Z,101457.52
2018-05-26T20:14:41.077Z,101450.70
2018-05-26T20:17:08.769Z,101454.78
2018-05-26T20:19:36.383Z,101457.59
2018-05-26T20:22:04.197Z,101452.74
2018-05-26T20:24:31.798Z,101454.18
2018-05-26T20:26:59.529Z,101453.30
2018-05-26T20:29:27.109Z,101459.13
2018-05-26T20:31:54.909Z,101456.00
2018-05-26T20:34:22.599Z,101455.25
2018-05-26T20:36:50.298Z,101454.98
2018-05-26T20:39:17.934Z,101448.81
2018-05-26T20:41:45.526Z,101460.50
2018-05-26T20:44:13.226Z,101455.97
2018-05-26T20:46:40.831Z,101457.20
2018-05-26T20:49:08.478Z,101459.69
2018-05-26T20:51:36.112Z,101459.37
2018-05-26T20:54:03.765Z,101455.31
2018-05-26T20:56:31.520Z,101463.84
2018-05-26T20:58:59.193Z,101460.98
2018-05-26T21:01:26.796Z,101458.83
2018-05-26T21:03:54.453Z,101460.11
2018-05-26T21:06:22.068Z,101456.06
2018-05-26T21:08:49.720Z,101455.66
2018-05-26T21:11:17.327Z,101456.97
2018-05-26T21:13:45.015Z,101458.02
2018-05-26T21:16:12.592Z,101458.03
2018-05-26T21:18:40.262Z,101454.50
2018-05-26T21:21:07.937Z,101458.02
2018-05-26T21:23:35.516Z,101451.46
2018-05-26T21:26:03.157Z,101454.28
2018-05-26T21:28:30.912Z,101452.58
2018-05-26T21:30:58.544Z,101450.42
2018-05-26T21:33:26.165Z,101453.53
2018-05-26T21:35:53.805Z,101451.98
2018-05-26T21:38:21.413Z,101445.30
2018-05-26T21:40:49.079Z,101454.14
2018-05-26T21:43:16.673Z,101451.09
2018-05-26T21:45:44.333Z,101445.32
2018-05-26T21:48:11.953Z,101449.30
2018-05-26T21:50:39.594Z,101450.17
2018-05-26T21:53:07.222Z,101453.75
2018-05-26T21:55:34.869Z,101457.36
2018-05-26T21:58:02.496Z,101459.63
2018-05-26T22:00:30.116Z,101456.14
2018-05-26T22:02:57.728Z,101458.42
2018-05-26T22:05:25.358Z,101454.84
2018-05-26T22:07:53.078Z,101450.45
2018-05-26T22:10:20.764Z,101445.11
2018-05-26T22:12:48.392Z,101451.33
2018-05-26T22:15:16.208Z,101459.48
2018-05-26T22:17:43.888Z,101451.53
2018-05-26T22:20:11.510Z,101445.31
2018-05-26T22:22:39.150Z,101447.06
2018-05-26T22:25:06.746Z,101443.23
2018-05-26T22:27:34.385Z,101445.44
2018-05-26T22:30:02.117Z,101441.53
2018-05-26T22:32:29.773Z,101442.78
2018-05-26T22:34:57.357Z,101440.64
2018-05-26T22:37:24.953Z,101438.94
2018-05-26T22:39:52.650Z,101426.16
2018-05-26T22:42:20.285Z,101430.57
2018-05-26T22:44:47.950Z,101435.10
2018-05-26T22:47:15.608Z,101439.52
2018-05-26T22:49:43.264Z,101440.44
2018-05-26T22:52:10.874Z,101440.86
2018-05-26T22:54:38.522Z,101437.70
2018-05-26T22:57:06.122Z,101433.70
2018-05-26T22:59:33.747Z,101427.92
2018-05-26T23:02:01.342Z,101434.15
2018-05-26T23:04:29.200Z,101437.67
2018-05-26T23:06:56.802Z,101447.41
2018-05-26T23:09:24.583Z,101442.95
2018-05-26T23:11:52.229Z,101436.34
2018-05-26T23:14:19.893Z,101440.73
2018-05-26T23:16:47.588Z,101431.91
2018-05-26T23:19:15.233Z,101440.28
2018-05-26T23:21:42.865Z,101435.91
2018-05-26T23:24:11.108Z,101444.34
2018-05-26T23:26:38.709Z,101435.55
2018-05-26T23:29:06.422Z,101424.52
2018-05-26T23:31:34.012Z,101426.71
2018-05-26T23:34:01.606Z,101422.78
2018-05-26T23:36:29.249Z,101427.20
2018-05-26T23:38:56.884Z,101428.58
2018-05-26T23:41:24.526Z,101428.20
2018-05-26T23:43:52.125Z,101424.77
2018-05-26T23:46:19.756Z,101425.30
2018-05-26T23:48:47.363Z,101428.38
2018-05-26T23:51:15.027Z,101429.66
2018-05-26T23:53:43.078Z,101432.77
2018-05-26T23:56:10.736Z,101427.00
2018-05-26T23:58:38.342Z,101428.79
